createdAt,value
2019-05-19T00:02:13.929Z,77.78
2019-05-19T00:04:44.170Z,77.97
2019-05-19T00:07:13.884Z,78.10
2019-05-19T00:09:43.997Z,78.17
2019-05-19T00:12:13.837Z,78.33
2019-05-19T00:14:44.017Z,78.68
2019-05-19T00:17:14.176Z,78.98
2019-05-19T00:19:43.778Z,78.82
2019-05-19T00:22:13.857Z,79.00
2019-05-19T00:24:43.811Z,79.40
2019-05-19T00:27:14.181Z,79.87
2019-05-19T00:29:43.877Z,80.13
2019-05-19T00:32:14.109Z,80.24
2019-05-19T00:34:43.777Z,80.07
2019-05-19T00:37:14.189Z,80.20
2019-05-19T00:39:44.120Z,79.67
2019-05-19T00:42:13.961Z,79.75
2019-05-19T00:44:43.860Z,80.36
2019-05-19T00:47:15.408Z,80.72
2019-05-19T00:49:44.825Z,81.21
2019-05-19T00:52:16.282Z,81.01
2019-05-19T00:54:48.088Z,81.33
2019-05-19T00:57:17.743Z,81.04
2019-05-19T00:59:48.090Z,81.11
2019-05-19T01:02:17.808Z,80.87
2019-05-19T01:04:47.256Z,80.55
2019-05-19T01:07:16.688Z,81.08
2019-05-19T01:09:46.500Z,81.39
2019-05-19T01:12:15.933Z,81.21
2019-05-19T01:14:45.374Z,81.26
2019-05-19T01:17:14.962Z,81.59
2019-05-19T01:19:55.610Z,82.02
2019-05-19T01:22:15.865Z,82.18
2019-05-19T01:24:45.329Z,82.33
2019-05-19T01:27:14.807Z,82.20
2019-05-19T01:29:44.333Z,82.05
2019-05-19T01:32:14.061Z,82.21
2019-05-19T01:34:44.138Z,82.58
2019-05-19T01:37:14.019Z,82.73
2019-05-19T01:39:44.159Z,82.66
2019-05-19T01:42:13.992Z,82.13
2019-05-19T01:44:44.049Z,82.89
2019-05-19T01:47:14.246Z,83.10
2019-05-19T01:49:44.153Z,82.34
2019-05-19T01:52:15.069Z,83.02
2019-05-19T01:54:44.669Z,82.81
2019-05-19T01:57:14.135Z,82.53
2019-05-19T01:59:44.015Z,82.51
2019-05-19T02:02:14.241Z,82.27
2019-05-19T02:04:44.288Z,82.74
2019-05-19T02:07:14.078Z,82.56
2019-05-19T02:09:44.101Z,83.02
2019-05-19T02:12:14.571Z,83.60
2019-05-19T02:14:46.637Z,83.49
2019-05-19T02:17:16.262Z,83.77
2019-05-19T02:19:45.702Z,83.30
2019-05-19T02:22:15.102Z,82.95
2019-05-19T02:24:44.710Z,82.76
2019-05-19T02:27:14.147Z,82.65
2019-05-19T02:29:43.934Z,82.92
2019-05-19T02:32:13.614Z,82.67
2019-05-19T02:34:43.121Z,82.76
2019-05-19T02:37:14.004Z,83.38
2019-05-19T02:39:43.542Z,83.15
2019-05-19T02:42:14.484Z,82.43
2019-05-19T02:44:45.337Z,81.67
2019-05-19T02:47:17.286Z,81.51
2019-05-19T02:49:48.123Z,81.18
2019-05-19T02:52:19.912Z,81.60
2019-05-19T02:54:50.278Z,82.17
2019-05-19T02:57:21.245Z,82.24
2019-05-19T02:59:50.744Z,82.30
2019-05-19T03:02:20.322Z,82.27
2019-05-19T03:04:49.727Z,81.75
2019-05-19T03:07:19.190Z,81.11
2019-05-19T03:09:48.698Z,81.32
2019-05-19T03:12:18.131Z,81.49
2019-05-19T03:14:47.578Z,81.90
2019-05-19T03:17:17.262Z,81.32
2019-05-19T03:19:46.662Z,81.64
2019-05-19T03:22:16.085Z,81.54
2019-05-19T03:24:45.757Z,81.58
2019-05-19T03:27:15.213Z,81.50
2019-05-19T03:29:49.502Z,81.28
2019-05-19T03:32:26.987Z,81.27
2019-05-19T03:34:56.943Z,81.67
2019-05-19T03:37:26.991Z,81.78
2019-05-19T03:39:57.281Z,82.08
2019-05-19T03:42:26.685Z,82.00
2019-05-19T03:44:56.094Z,81.74
2019-05-19T03:47:25.781Z,81.72
2019-05-19T03:49:55.205Z,81.35
2019-05-19T03:52:25.544Z,81.81
2019-05-19T03:54:55.092Z,81.26
2019-05-19T03:57:24.534Z,81.72
2019-05-19T03:59:53.937Z,81.64
2019-05-19T04:02:23.643Z,81.11
2019-05-19T04:04:53.046Z,81.21
2019-05-19T04:07:22.483Z,81.44
2019-05-19T04:09:52.039Z,81.27
2019-05-19T04:12:21.426Z,81.55
2019-05-19T04:14:51.429Z,80.88
2019-05-19T04:17:21.566Z,81.12
2019-05-19T04:19:51.916Z,81.79
2019-05-19T04:22:21.342Z,81.84
2019-05-19T04:24:50.965Z,81.24
2019-05-19T04:27:20.463Z,81.21
2019-05-19T04:29:49.895Z,81.23
2019-05-19T04:32:19.363Z,81.30
2019-05-19T04:34:48.829Z,81.78
2019-05-19T04:37:18.219Z,82.15
2019-05-19T04:39:47.743Z,81.54
2019-05-19T04:42:17.289Z,80.96
2019-05-19T04:44:46.709Z,81.36
2019-05-19T04:47:16.352Z,81.47
2019-05-19T04:49:45.790Z,81.45
2019-05-19T04:52:15.239Z,81.61
2019-05-19T04:54:44.841Z,81.47
2019-05-19T04:57:14.273Z,81.10
2019-05-19T04:59:43.706Z,81.14
2019-05-19T05:02:13.199Z,81.63
2019-05-19T05:04:42.624Z,81.15
2019-05-19T05:07:12.048Z,81.10
2019-05-19T05:09:41.757Z,81.51
2019-05-19T05:12:11.166Z,81.56
2019-05-19T05:14:40.559Z,81.24
2019-05-19T05:17:10.146Z,81.13
2019-05-19T05:19:39.561Z,80.87
2019-05-19T05:22:21.235Z,81.03
2019-05-19T05:24:40.739Z,80.61
2019-05-19T05:27:10.152Z,81.24
2019-05-19T05:29:39.580Z,80.08
2019-05-19T05:32:09.355Z,80.08
2019-05-19T05:34:38.831Z,79.84
2019-05-19T05:37:08.258Z,79.80
2019-05-19T05:39:37.738Z,79.21
2019-05-19T05:42:07.164Z,79.61
2019-05-19T05:44:36.609Z,79.50
2019-05-19T05:47:06.065Z,79.05
2019-05-19T05:49:35.476Z,78.78
2019-05-19T05:52:04.893Z,78.60
2019-05-19T05:54:34.715Z,79.25
2019-05-19T05:57:04.268Z,79.51
2019-05-19T05:59:33.702Z,79.91
2019-05-19T06:02:03.228Z,79.67
2019-05-19T06:04:32.637Z,79.54
2019-05-19T06:07:02.065Z,79.49
2019-05-19T06:09:31.951Z,78.18
2019-05-19T06:12:01.956Z,77.21
2019-05-19T06:14:31.859Z,77.24
2019-05-19T06:17:02.354Z,77.07
2019-05-19T06:19:32.016Z,77.03
2019-05-19T06:22:01.915Z,76.88
2019-05-19T06:24:32.014Z,76.42
2019-05-19T06:27:01.947Z,77.03
2019-05-19T06:29:32.372Z,76.96
2019-05-19T06:32:08.713Z,75.69
2019-05-19T06:34:38.222Z,75.45
2019-05-19T06:37:08.074Z,75.68
2019-05-19T06:39:37.581Z,76.20
2019-05-19T06:42:07.039Z,74.97
2019-05-19T06:44:37.694Z,74.59
2019-05-19T06:47:07.249Z,74.06
2019-05-19T06:49:36.722Z,74.23
2019-05-19T06:52:06.152Z,73.71
2019-05-19T06:54:35.830Z,73.44
2019-05-19T06:57:05.276Z,73.41
2019-05-19T06:59:34.724Z,73.31
2019-05-19T07:02:04.213Z,73.16
2019-05-19T07:04:33.715Z,72.29
2019-05-19T07:07:03.252Z,72.35
2019-05-19T07:09:32.910Z,72.14
2019-05-19T07:12:02.343Z,71.61
2019-05-19T07:14:32.044Z,71.82
2019-05-19T07:17:02.537Z,72.01
2019-05-19T07:19:32.140Z,71.39
2019-05-19T07:22:02.106Z,71.58
2019-05-19T07:24:32.115Z,71.99
2019-05-19T07:27:02.034Z,71.96
2019-05-19T07:29:32.046Z,71.59
2019-05-19T07:32:03.675Z,70.92
2019-05-19T07:34:33.193Z,69.70
2019-05-19T07:37:02.654Z,69.36
2019-05-19T07:39:32.153Z,67.38
2019-05-19T07:42:02.216Z,66.65
2019-05-19T07:44:32.068Z,66.10
2019-05-19T07:47:02.205Z,65.42
2019-05-19T07:49:32.090Z,66.27
2019-05-19T07:52:02.157Z,66.23
2019-05-19T07:54:32.216Z,65.29
2019-05-19T07:57:02.106Z,63.70
2019-05-19T07:59:32.086Z,64.50
2019-05-19T08:02:02.287Z,64.23
2019-05-19T08:04:32.124Z,61.29
2019-05-19T08:07:02.235Z,60.84
2019-05-19T08:09:32.177Z,60.36
2019-05-19T08:12:02.170Z,60.39
2019-05-19T08:14:32.110Z,60.40
2019-05-19T08:17:02.337Z,60.09
2019-05-19T08:19:32.160Z,58.14
2019-05-19T08:22:02.266Z,55.90
2019-05-19T08:24:32.275Z,51.58
2019-05-19T08:27:05.023Z,50.25
2019-05-19T08:29:34.472Z,49.92
2019-05-19T08:32:03.966Z,47.84
2019-05-19T08:34:33.513Z,47.38
2019-05-19T08:37:02.967Z,47.84
2019-05-19T08:39:33.548Z,48.37
2019-05-19T08:42:02.995Z,50.71
2019-05-19T08:44:32.397Z,48.67
2019-05-19T08:47:02.210Z,46.91
2019-05-19T08:49:32.303Z,46.80
2019-05-19T08:52:02.143Z,47.93
2019-05-19T08:54:32.366Z,50.92
2019-05-19T08:57:02.170Z,51.46
2019-05-19T08:59:32.228Z,51.54
2019-05-19T09:02:02.475Z,51.07
2019-05-19T09:04:32.229Z,49.76
2019-05-19T09:07:02.201Z,50.34
2019-05-19T09:09:32.250Z,51.16
2019-05-19T09:12:02.179Z,52.06
2019-05-19T09:14:32.309Z,52.32
2019-05-19T09:17:02.515Z,51.79
2019-05-19T09:19:32.235Z,50.84
2019-05-19T09:22:02.302Z,49.22
2019-05-19T09:24:32.475Z,47.25
2019-05-19T09:27:02.428Z,45.80
2019-05-19T09:29:32.368Z,44.82
2019-05-19T09:32:02.526Z,44.54
2019-05-19T09:34:32.299Z,44.54
2019-05-19T09:37:02.313Z,42.77
2019-05-19T09:39:33.560Z,43.12
2019-05-19T09:42:03.135Z,42.68
2019-05-19T09:44:32.592Z,42.38
2019-05-19T09:47:02.404Z,44.31
2019-05-19T09:49:32.978Z,44.80
2019-05-19T09:52:03.277Z,44.55
2019-05-19T09:54:44.620Z,44.01
2019-05-19T09:57:04.700Z,44.77
2019-05-19T09:59:34.166Z,44.61
2019-05-19T10:02:03.780Z,44.57
2019-05-19T10:04:33.329Z,45.64
2019-05-19T10:07:03.695Z,46.11
2019-05-19T10:10:10.180Z,47.20
2019-05-19T10:12:39.613Z,48.47
2019-05-19T10:15:09.540Z,47.58
2019-05-19T10:17:39.200Z,45.70
2019-05-19T10:20:10.683Z,46.27
2019-05-19T10:22:40.427Z,48.29
2019-05-19T10:25:21.537Z,46.86
2019-05-19T10:27:42.172Z,46.65
2019-05-19T10:30:12.678Z,48.13
2019-05-19T10:32:42.164Z,45.38
2019-05-19T10:35:11.966Z,44.65
2019-05-19T10:37:41.384Z,46.03
2019-05-19T10:40:11.059Z,44.93
2019-05-19T10:42:40.900Z,44.44
2019-05-19T10:45:10.890Z,43.67
2019-05-19T10:47:40.347Z,43.62
2019-05-19T10:50:10.290Z,43.98
2019-05-19T10:52:39.713Z,43.56
2019-05-19T10:55:09.485Z,44.15
2019-05-19T10:57:38.883Z,45.58
2019-05-19T11:00:09.427Z,45.26
2019-05-19T11:02:39.987Z,45.21
2019-05-19T11:05:11.392Z,44.81
2019-05-19T11:07:41.143Z,45.20
2019-05-19T11:10:11.179Z,45.45
2019-05-19T11:12:40.582Z,45.55
2019-05-19T11:15:10.674Z,45.97
2019-05-19T11:17:40.422Z,45.29
2019-05-19T11:20:09.951Z,45.62
2019-05-19T11:22:39.350Z,45.51
2019-05-19T11:25:09.081Z,45.84
2019-05-19T11:27:38.509Z,45.87
2019-05-19T11:30:08.647Z,46.71
2019-05-19T11:32:38.399Z,47.32
2019-05-19T11:35:07.938Z,47.38
2019-05-19T11:37:37.789Z,47.62
2019-05-19T11:40:07.317Z,47.75
2019-05-19T11:42:36.736Z,47.50
2019-05-19T11:45:06.670Z,48.41
2019-05-19T11:47:36.467Z,48.38
2019-05-19T11:50:05.923Z,48.07
2019-05-19T11:52:35.340Z,47.76
2019-05-19T11:55:04.997Z,47.85
2019-05-19T11:57:36.344Z,48.23
2019-05-19T12:00:08.077Z,48.43
2019-05-19T12:02:39.408Z,48.25
2019-05-19T12:05:10.274Z,48.28
2019-05-19T12:07:39.844Z,47.75
2019-05-19T12:10:11.599Z,47.70
2019-05-19T12:12:41.116Z,47.74
2019-05-19T12:15:11.029Z,48.11
2019-05-19T12:17:41.730Z,48.12
2019-05-19T12:20:13.164Z,47.98
2019-05-19T12:22:42.578Z,48.27
2019-05-19T12:25:13.997Z,48.41
2019-05-19T12:27:43.412Z,48.54
2019-05-19T12:30:19.134Z,47.90
2019-05-19T12:32:48.721Z,48.05
2019-05-19T12:35:19.754Z,48.41
2019-05-19T12:37:49.252Z,48.39
2019-05-19T12:40:22.464Z,47.92
2019-05-19T12:42:52.058Z,47.36
2019-05-19T12:45:21.670Z,47.09
2019-05-19T12:47:52.599Z,47.40
2019-05-19T12:50:26.031Z,48.06
2019-05-19T12:52:55.457Z,47.77
2019-05-19T12:55:26.340Z,47.62
2019-05-19T12:57:56.107Z,48.42
2019-05-19T13:00:26.081Z,47.80
2019-05-19T13:02:56.160Z,47.02
2019-05-19T13:05:27.513Z,46.38
2019-05-19T13:08:01.906Z,46.11
2019-05-19T13:10:34.030Z,45.54
2019-05-19T13:13:04.587Z,46.33
2019-05-19T13:15:35.130Z,46.02
2019-05-19T13:18:06.164Z,46.72
2019-05-19T13:20:35.678Z,46.83
2019-05-19T13:23:06.534Z,46.48
2019-05-19T13:25:37.769Z,46.77
2019-05-19T13:28:09.059Z,46.40
2019-05-19T13:30:43.460Z,46.55
2019-05-19T13:33:12.739Z,46.73
2019-05-19T13:35:42.228Z,46.66
2019-05-19T13:38:11.789Z,46.50
2019-05-19T13:40:41.688Z,45.73
2019-05-19T13:43:12.776Z,45.97
2019-05-19T13:45:42.335Z,45.87
2019-05-19T13:48:11.768Z,45.50
2019-05-19T13:50:44.002Z,45.72
2019-05-19T13:53:13.462Z,45.60
2019-05-19T13:55:44.483Z,44.38
2019-05-19T13:58:14.873Z,45.11
2019-05-19T14:00:44.469Z,45.12
2019-05-19T14:03:16.613Z,45.58
2019-05-19T14:05:47.769Z,45.74
2019-05-19T14:08:17.237Z,45.80
2019-05-19T14:10:48.025Z,46.21
2019-05-19T14:13:18.818Z,45.97
2019-05-19T14:15:48.233Z,46.54
2019-05-19T14:18:19.597Z,47.11
2019-05-19T14:20:51.640Z,47.16
2019-05-19T14:23:23.993Z,46.68
2019-05-19T14:25:55.247Z,46.68
2019-05-19T14:28:24.922Z,46.68
2019-05-19T14:30:54.348Z,46.58
2019-05-19T14:33:24.276Z,47.04
2019-05-19T14:35:53.783Z,47.08
2019-05-19T14:38:24.330Z,46.67
2019-05-19T14:40:54.801Z,46.37
2019-05-19T14:43:24.204Z,46.48
2019-05-19T14:45:53.752Z,46.21
2019-05-19T14:48:24.417Z,45.59
2019-05-19T14:50:54.985Z,45.81
2019-05-19T14:53:24.473Z,45.98
2019-05-19T14:55:56.115Z,45.83
2019-05-19T14:58:26.146Z,45.80
2019-05-19T15:00:55.913Z,46.03
2019-05-19T15:03:27.304Z,46.71
2019-05-19T15:05:56.738Z,46.77
2019-05-19T15:08:26.174Z,47.35
2019-05-19T15:10:55.881Z,47.26
2019-05-19T15:13:26.563Z,46.88
2019-05-19T15:15:58.188Z,46.63
2019-05-19T15:18:29.123Z,46.84
2019-05-19T15:21:00.084Z,46.70
2019-05-19T15:23:31.403Z,46.99
2019-05-19T15:26:01.045Z,47.06
2019-05-19T15:28:31.906Z,47.25
2019-05-19T15:31:03.152Z,47.13
2019-05-19T15:33:38.151Z,47.43
2019-05-19T15:36:07.648Z,47.21
2019-05-19T15:38:38.482Z,47.97
2019-05-19T15:41:08.218Z,48.08
2019-05-19T15:43:37.792Z,48.74
2019-05-19T15:46:08.662Z,49.15
2019-05-19T15:48:40.153Z,49.48
2019-05-19T15:51:10.582Z,50.01
2019-05-19T15:53:41.146Z,49.94
2019-05-19T15:56:10.806Z,50.74
2019-05-19T15:58:40.398Z,51.36
2019-05-19T16:01:10.972Z,51.50
2019-05-19T16:03:41.375Z,51.70
2019-05-19T16:06:12.660Z,52.20
2019-05-19T16:08:42.196Z,52.44
2019-05-19T16:11:12.956Z,52.44
2019-05-19T16:13:42.462Z,52.12
2019-05-19T16:16:12.282Z,51.60
2019-05-19T16:18:41.789Z,50.96
2019-05-19T16:21:11.284Z,50.79
2019-05-19T16:23:40.839Z,50.72
2019-05-19T16:26:10.711Z,50.52
2019-05-19T16:28:40.164Z,50.51
2019-05-19T16:31:09.574Z,50.42
2019-05-19T16:33:39.138Z,50.15
2019-05-19T16:36:08.588Z,49.74
2019-05-19T16:38:39.218Z,49.89
2019-05-19T16:41:08.773Z,49.70
2019-05-19T16:43:38.204Z,49.73
2019-05-19T16:46:07.796Z,49.69
2019-05-19T16:48:37.290Z,50.07
2019-05-19T16:51:06.734Z,50.00
2019-05-19T16:53:36.214Z,49.69
2019-05-19T16:56:05.914Z,49.65
2019-05-19T16:58:45.015Z,49.94
2019-05-19T17:01:06.686Z,50.29
2019-05-19T17:03:36.322Z,50.52
2019-05-19T17:06:05.988Z,50.49
2019-05-19T17:08:35.430Z,50.70
2019-05-19T17:11:17.590Z,50.51
2019-05-19T17:13:36.344Z,50.71
2019-05-19T17:16:05.756Z,51.09
2019-05-19T17:18:35.228Z,51.28
2019-05-19T17:21:04.659Z,51.40
2019-05-19T17:23:34.059Z,51.72
2019-05-19T17:26:03.538Z,52.16
2019-05-19T17:28:33.335Z,52.06
2019-05-19T17:31:03.358Z,52.44
2019-05-19T17:33:33.550Z,53.07
2019-05-19T17:36:03.429Z,53.33
2019-05-19T17:38:33.428Z,53.26
2019-05-19T17:41:03.518Z,53.41
2019-05-19T17:43:33.476Z,53.92
2019-05-19T17:46:03.350Z,53.97
2019-05-19T17:48:33.415Z,54.41
2019-05-19T17:51:03.371Z,54.69
2019-05-19T17:53:33.785Z,54.74
2019-05-19T17:56:04.042Z,55.29
2019-05-19T17:58:34.192Z,55.11
2019-05-19T18:01:05.601Z,55.66
2019-05-19T18:03:35.423Z,56.23
2019-05-19T18:06:04.917Z,56.47
2019-05-19T18:08:34.330Z,57.27
2019-05-19T18:11:04.253Z,57.70
2019-05-19T18:13:33.930Z,58.05
2019-05-19T18:16:04.742Z,58.41
2019-05-19T18:18:34.401Z,58.44
2019-05-19T18:21:03.813Z,58.67
2019-05-19T18:23:33.579Z,58.54
2019-05-19T18:26:06.678Z,59.12
2019-05-19T18:28:34.858Z,60.18
2019-05-19T18:31:04.307Z,60.84
2019-05-19T18:33:33.905Z,61.29
2019-05-19T18:36:03.598Z,61.46
2019-05-19T18:38:33.596Z,61.63
2019-05-19T18:41:03.985Z,61.64
2019-05-19T18:43:33.675Z,62.19
2019-05-19T18:46:03.623Z,62.71
2019-05-19T18:48:35.496Z,63.37
2019-05-19T18:51:04.887Z,63.69
2019-05-19T18:53:34.505Z,63.89
2019-05-19T18:56:03.933Z,64.82
2019-05-19T18:58:35.563Z,64.73
2019-05-19T19:01:05.091Z,65.31
2019-05-19T19:03:35.908Z,65.63
2019-05-19T19:06:06.873Z,65.52
2019-05-19T19:08:37.890Z,65.71
2019-05-19T19:11:08.625Z,66.61
2019-05-19T19:13:39.154Z,66.54
2019-05-19T19:16:08.948Z,66.69
2019-05-19T19:18:38.592Z,67.36
2019-05-19T19:21:09.064Z,67.83
2019-05-19T19:23:39.551Z,67.53
2019-05-19T19:26:10.305Z,68.00
2019-05-19T19:28:39.768Z,68.10
2019-05-19T19:31:10.352Z,68.06
2019-05-19T19:33:40.994Z,67.89
2019-05-19T19:36:10.457Z,68.97
2019-05-19T19:38:39.876Z,69.11
2019-05-19T19:41:09.597Z,69.27
2019-05-19T19:43:39.036Z,69.35
2019-05-19T19:46:08.715Z,69.65
2019-05-19T19:48:40.409Z,70.07
2019-05-19T19:51:11.758Z,70.57
2019-05-19T19:53:42.342Z,70.90
2019-05-19T19:56:12.099Z,71.37
2019-05-19T19:58:41.571Z,71.95
2019-05-19T20:01:12.905Z,71.59
2019-05-19T20:03:42.409Z,72.29
2019-05-19T20:06:11.854Z,71.96
2019-05-19T20:08:41.295Z,71.94
2019-05-19T20:11:10.870Z,72.03
2019-05-19T20:13:40.326Z,72.55
2019-05-19T20:16:09.789Z,72.64
2019-05-19T20:18:39.614Z,72.69
2019-05-19T20:21:09.320Z,72.86
2019-05-19T20:23:40.560Z,72.82
2019-05-19T20:26:10.309Z,72.87
2019-05-19T20:28:40.890Z,73.05
2019-05-19T20:31:10.363Z,73.20
2019-05-19T20:33:40.035Z,73.08
2019-05-19T20:36:09.857Z,73.31
2019-05-19T20:38:39.340Z,73.18
2019-05-19T20:41:08.806Z,72.99
2019-05-19T20:43:38.212Z,73.09
2019-05-19T20:46:07.664Z,73.19
2019-05-19T20:48:37.126Z,73.07
2019-05-19T20:51:06.818Z,73.02
2019-05-19T20:53:36.338Z,73.22
2019-05-19T20:56:05.977Z,73.31
2019-05-19T20:58:35.376Z,73.45
2019-05-19T21:01:04.857Z,73.37
2019-05-19T21:03:35.462Z,73.46
2019-05-19T21:06:04.971Z,73.47
2019-05-19T21:08:34.414Z,73.65
2019-05-19T21:11:03.893Z,73.61
2019-05-19T21:13:34.120Z,73.87
2019-05-19T21:16:05.476Z,74.26
2019-05-19T21:18:35.289Z,74.92
2019-05-19T21:21:05.219Z,74.94
2019-05-19T21:23:34.718Z,75.23
2019-05-19T21:26:04.329Z,75.38
2019-05-19T21:28:35.668Z,75.50
2019-05-19T21:31:06.295Z,75.42
2019-05-19T21:33:36.123Z,75.60
2019-05-19T21:36:05.692Z,75.91
2019-05-19T21:38:35.164Z,75.97
2019-05-19T21:41:04.844Z,75.97
2019-05-19T21:43:34.351Z,75.94
2019-05-19T21:46:06.443Z,76.00
2019-05-19T21:48:35.757Z,75.83
2019-05-19T21:51:05.178Z,76.32
2019-05-19T21:53:34.648Z,76.33
2019-05-19T21:56:04.244Z,76.59
2019-05-19T21:58:33.894Z,76.99
2019-05-19T22:01:03.943Z,76.96
2019-05-19T22:03:34.119Z,77.46
2019-05-19T22:06:03.901Z,77.60
2019-05-19T22:08:35.151Z,77.42
2019-05-19T22:11:04.841Z,77.64
2019-05-19T22:13:34.336Z,77.50
2019-05-19T22:16:12.929Z,77.38
2019-05-19T22:18:35.362Z,77.64
2019-05-19T22:21:04.813Z,77.82
2019-05-19T22:23:34.279Z,77.98
2019-05-19T22:26:04.207Z,77.93
2019-05-19T22:28:33.956Z,78.34
2019-05-19T22:31:03.938Z,78.87
2019-05-19T22:33:34.052Z,78.78
2019-05-19T22:36:03.934Z,79.05
2019-05-19T22:38:33.979Z,79.27
2019-05-19T22:41:04.322Z,79.09
2019-05-19T22:43:36.894Z,79.13
2019-05-19T22:46:07.422Z,79.32
2019-05-19T22:48:39.005Z,79.56
2019-05-19T22:51:08.724Z,80.42
2019-05-19T22:53:38.198Z,80.46
2019-05-19T22:56:07.694Z,81.17
2019-05-19T22:58:37.151Z,81.18
2019-05-19T23:01:06.683Z,81.00
2019-05-19T23:03:36.180Z,80.73
2019-05-19T23:06:05.663Z,80.66
2019-05-19T23:08:35.168Z,80.99
2019-05-19T23:11:04.982Z,81.57
2019-05-19T23:13:34.554Z,81.60
2019-05-19T23:16:04.108Z,81.63
2019-05-19T23:18:34.189Z,81.68
2019-05-19T23:21:04.059Z,81.73
2019-05-19T23:23:35.817Z,82.23
2019-05-19T23:26:05.429Z,82.27
2019-05-19T23:28:35.297Z,82.00
2019-05-19T23:31:04.742Z,81.85
2019-05-19T23:33:34.434Z,81.86
2019-05-19T23:36:04.093Z,82.10
2019-05-19T23:38:34.007Z,82.45
2019-05-19T23:41:05.155Z,82.55
2019-05-19T23:43:34.580Z,82.47
2019-05-19T23:46:05.996Z,82.30
2019-05-19T23:48:35.578Z,82.41
2019-05-19T23:51:05.028Z,82.29
2019-05-19T23:53:34.450Z,82.22
2019-05-19T23:56:04.087Z,81.84
2019-05-19T23:58:34.163Z,81.83
